sensor_id;sensor_type;location;lat;lon;timestamp;P1;durP1;ratioP1;P2;durP2;ratioP2
61460;SDS011;47325;50.506;4.472;2023-07-22T00:04:18;4.50;;;3.40;;
61460;SDS011;47325;50.506;4.472;2023-07-22T00:10:02;4.20;;;3.30;;
61460;SDS011;47325;50.506;4.472;2023-07-22T00:15:47;5.60;;;3.50;;
61460;SDS011;47325;50.506;4.472;2023-07-22T00:21:31;5.20;;;3.60;;
61460;SDS011;47325;50.506;4.472;2023-07-22T00:27:15;4.50;;;3.30;;
61460;SDS011;47325;50.506;4.472;2023-07-22T00:32:59;4.40;;;3.50;;
61460;SDS011;47325;50.506;4.472;2023-07-22T00:38:44;4.40;;;3.20;;
61460;SDS011;47325;50.506;4.472;2023-07-22T00:44:29;4.20;;;3.40;;
61460;SDS011;47325;50.506;4.472;2023-07-22T00:50:13;4.20;;;3.30;;
61460;SDS011;47325;50.506;4.472;2023-07-22T00:55:58;5.00;;;3.60;;
61460;SDS011;47325;50.506;4.472;2023-07-22T01:01:42;4.70;;;3.60;;
61460;SDS011;47325;50.506;4.472;2023-07-22T01:07:26;4.80;;;3.70;;
61460;SDS011;47325;50.506;4.472;2023-07-22T01:13:10;4.90;;;3.70;;
61460;SDS011;47325;50.506;4.472;2023-07-22T01:18:55;5.60;;;3.60;;
61460;SDS011;47325;50.506;4.472;2023-07-22T01:24:39;4.30;;;3.20;;
61460;SDS011;47325;50.506;4.472;2023-07-22T01:30:24;4.70;;;3.90;;
61460;SDS011;47325;50.506;4.472;2023-07-22T01:36:09;5.00;;;3.70;;
61460;SDS011;47325;50.506;4.472;2023-07-22T01:41:53;5.40;;;3.90;;
61460;SDS011;47325;50.506;4.472;2023-07-22T01:47:38;5.10;;;3.60;;
61460;SDS011;47325;50.506;4.472;2023-07-22T01:53:23;5.10;;;3.80;;
61460;SDS011;47325;50.506;4.472;2023-07-22T01:59:07;5.50;;;3.90;;
61460;SDS011;47325;50.506;4.472;2023-07-22T02:04:51;6.00;;;4.00;;
61460;SDS011;47325;50.506;4.472;2023-07-22T02:10:36;5.30;;;3.60;;
61460;SDS011;47325;50.506;4.472;2023-07-22T02:16:20;7.20;;;4.20;;
61460;SDS011;47325;50.506;4.472;2023-07-22T02:22:05;4.80;;;4.00;;
61460;SDS011;47325;50.506;4.472;2023-07-22T02:27:50;5.40;;;4.00;;
61460;SDS011;47325;50.506;4.472;2023-07-22T02:33:34;5.30;;;3.90;;
61460;SDS011;47325;50.506;4.472;2023-07-22T02:39:18;5.20;;;3.60;;
61460;SDS011;47325;50.506;4.472;2023-07-22T02:45:03;6.10;;;3.70;;
61460;SDS011;47325;50.506;4.472;2023-07-22T02:50:47;5.40;;;3.60;;
61460;SDS011;47325;50.506;4.472;2023-07-22T02:56:31;6.00;;;4.10;;
61460;SDS011;47325;50.506;4.472;2023-07-22T03:02:16;6.10;;;4.00;;
61460;SDS011;47325;50.506;4.472;2023-07-22T03:08:00;4.90;;;3.60;;
61460;SDS011;47325;50.506;4.472;2023-07-22T03:13:45;5.00;;;3.80;;
61460;SDS011;47325;50.506;4.472;2023-07-22T03:19:29;5.60;;;3.80;;
61460;SDS011;47325;50.506;4.472;2023-07-22T03:25:14;6.60;;;4.10;;
61460;SDS011;47325;50.506;4.472;2023-07-22T03:30:59;6.90;;;3.70;;
61460;SDS011;47325;50.506;4.472;2023-07-22T03:36:43;6.20;;;3.70;;
61460;SDS011;47325;50.506;4.472;2023-07-22T03:42:28;5.60;;;4.00;;
61460;SDS011;47325;50.506;4.472;2023-07-22T03:48:13;5.70;;;3.80;;
61460;SDS011;47325;50.506;4.472;2023-07-22T03:53:57;5.00;;;3.80;;
61460;SDS011;47325;50.506;4.472;2023-07-22T03:59:42;5.30;;;3.70;;
61460;SDS011;47325;50.506;4.472;2023-07-22T04:05:28;5.50;;;4.10;;
61460;SDS011;47325;50.506;4.472;2023-07-22T04:11:12;5.40;;;3.70;;
61460;SDS011;47325;50.506;4.472;2023-07-22T04:16:57;5.00;;;3.70;;
61460;SDS011;47325;50.506;4.472;2023-07-22T04:22:41;5.80;;;4.10;;
61460;SDS011;47325;50.506;4.472;2023-07-22T04:28:26;5.40;;;3.60;;
61460;SDS011;47325;50.506;4.472;2023-07-22T04:34:10;5.20;;;3.80;;
61460;SDS011;47325;50.506;4.472;2023-07-22T04:39:54;5.10;;;3.70;;
61460;SDS011;47325;50.506;4.472;2023-07-22T04:45:38;4.70;;;3.70;;
61460;SDS011;47325;50.506;4.472;2023-07-22T04:51:23;6.20;;;4.00;;
61460;SDS011;47325;50.506;4.472;2023-07-22T04:57:07;4.90;;;3.60;;
61460;SDS011;47325;50.506;4.472;2023-07-22T05:02:52;5.80;;;3.90;;
61460;SDS011;47325;50.506;4.472;2023-07-22T05:08:36;5.00;;;3.80;;
61460;SDS011;47325;50.506;4.472;2023-07-22T05:14:21;5.40;;;3.80;;
61460;SDS011;47325;50.506;4.472;2023-07-22T05:20:05;5.00;;;3.70;;
61460;SDS011;47325;50.506;4.472;2023-07-22T05:25:54;6.70;;;3.90;;
61460;SDS011;47325;50.506;4.472;2023-07-22T05:31:39;4.90;;;3.70;;
61460;SDS011;47325;50.506;4.472;2023-07-22T05:37:23;5.00;;;3.70;;
61460;SDS011;47325;50.506;4.472;2023-07-22T05:43:07;5.20;;;3.70;;
61460;SDS011;47325;50.506;4.472;2023-07-22T05:48:52;8.20;;;4.80;;
61460;SDS011;47325;50.506;4.472;2023-07-22T05:54:36;9.30;;;5.00;;
61460;SDS011;47325;50.506;4.472;2023-07-22T06:00:20;11.60;;;4.90;;
61460;SDS011;47325;50.506;4.472;2023-07-22T06:06:05;8.90;;;5.00;;
61460;SDS011;47325;50.506;4.472;2023-07-22T06:11:49;6.60;;;4.60;;
61460;SDS011;47325;50.506;4.472;2023-07-22T06:17:35;9.20;;;4.60;;
61460;SDS011;47325;50.506;4.472;2023-07-22T06:23:20;9.10;;;4.70;;
61460;SDS011;47325;50.506;4.472;2023-07-22T06:29:04;9.00;;;4.40;;
61460;SDS011;47325;50.506;4.472;2023-07-22T06:34:48;9.00;;;4.20;;
61460;SDS011;47325;50.506;4.472;2023-07-22T06:40:32;7.60;;;3.90;;
61460;SDS011;47325;50.506;4.472;2023-07-22T06:46:17;7.90;;;4.00;;
61460;SDS011;47325;50.506;4.472;2023-07-22T06:52:01;6.80;;;3.70;;
61460;SDS011;47325;50.506;4.472;2023-07-22T06:57:47;8.60;;;3.80;;
61460;SDS011;47325;50.506;4.472;2023-07-22T07:03:32;9.80;;;4.00;;
61460;SDS011;47325;50.506;4.472;2023-07-22T07:09:16;6.50;;;3.90;;
61460;SDS011;47325;50.506;4.472;2023-07-22T07:15:01;8.30;;;3.90;;
61460;SDS011;47325;50.506;4.472;2023-07-22T07:20:45;8.00;;;3.70;;
61460;SDS011;47325;50.506;4.472;2023-07-22T07:26:29;7.80;;;3.20;;
61460;SDS011;47325;50.506;4.472;2023-07-22T07:32:14;7.20;;;3.10;;
61460;SDS011;47325;50.506;4.472;2023-07-22T07:37:58;7.50;;;3.00;;
61460;SDS011;47325;50.506;4.472;2023-07-22T07:43:42;6.90;;;2.90;;
61460;SDS011;47325;50.506;4.472;2023-07-22T07:49:27;6.70;;;2.70;;
61460;SDS011;47325;50.506;4.472;2023-07-22T07:55:11;6.50;;;2.60;;
61460;SDS011;47325;50.506;4.472;2023-07-22T08:00:55;5.60;;;2.40;;
61460;SDS011;47325;50.506;4.472;2023-07-22T08:06:40;7.60;;;2.50;;
61460;SDS011;47325;50.506;4.472;2023-07-22T08:12:24;6.50;;;2.20;;
61460;SDS011;47325;50.506;4.472;2023-07-22T08:18:08;6.10;;;2.20;;
61460;SDS011;47325;50.506;4.472;2023-07-22T08:23:52;5.00;;;2.10;;
61460;SDS011;47325;50.506;4.472;2023-07-22T08:29:37;5.30;;;2.10;;
61460;SDS011;47325;50.506;4.472;2023-07-22T08:35:21;5.40;;;2.30;;
61460;SDS011;47325;50.506;4.472;2023-07-22T08:41:05;4.70;;;1.80;;
61460;SDS011;47325;50.506;4.472;2023-07-22T08:46:50;5.80;;;2.10;;
61460;SDS011;47325;50.506;4.472;2023-07-22T08:52:38;5.60;;;2.00;;
61460;SDS011;47325;50.506;4.472;2023-07-22T08:58:23;5.10;;;2.10;;
61460;SDS011;47325;50.506;4.472;2023-07-22T09:04:08;4.10;;;2.00;;
61460;SDS011;47325;50.506;4.472;2023-07-22T09:09:52;4.10;;;1.90;;
61460;SDS011;47325;50.506;4.472;2023-07-22T09:15:38;4.20;;;1.70;;
61460;SDS011;47325;50.506;4.472;2023-07-22T09:21:22;3.10;;;1.60;;
61460;SDS011;47325;50.506;4.472;2023-07-22T09:27:07;3.70;;;1.30;;
61460;SDS011;47325;50.506;4.472;2023-07-22T09:32:51;2.80;;;1.40;;
61460;SDS011;47325;50.506;4.472;2023-07-22T09:38:36;3.10;;;1.50;;
61460;SDS011;47325;50.506;4.472;2023-07-22T09:44:20;3.00;;;1.40;;
61460;SDS011;47325;50.506;4.472;2023-07-22T09:50:05;2.70;;;1.50;;
61460;SDS011;47325;50.506;4.472;2023-07-22T09:55:49;2.10;;;1.30;;
61460;SDS011;47325;50.506;4.472;2023-07-22T10:01:37;2.50;;;1.10;;
61460;SDS011;47325;50.506;4.472;2023-07-22T10:07:21;3.60;;;1.30;;
61460;SDS011;47325;50.506;4.472;2023-07-22T10:13:06;2.30;;;1.20;;
61460;SDS011;47325;50.506;4.472;2023-07-22T10:18:50;2.60;;;1.30;;
61460;SDS011;47325;50.506;4.472;2023-07-22T10:24:35;2.30;;;1.30;;
61460;SDS011;47325;50.506;4.472;2023-07-22T10:30:19;2.30;;;1.30;;
61460;SDS011;47325;50.506;4.472;2023-07-22T10:36:08;3.00;;;1.40;;
61460;SDS011;47325;50.506;4.472;2023-07-22T10:41:52;2.80;;;1.40;;
61460;SDS011;47325;50.506;4.472;2023-07-22T10:47:41;3.90;;;1.80;;
61460;SDS011;47325;50.506;4.472;2023-07-22T10:53:31;4.20;;;1.70;;
61460;SDS011;47325;50.506;4.472;2023-07-22T10:59:17;4.70;;;1.60;;
61460;SDS011;47325;50.506;4.472;2023-07-22T11:05:05;3.20;;;1.60;;
61460;SDS011;47325;50.506;4.472;2023-07-22T11:10:55;3.30;;;1.50;;
61460;SDS011;47325;50.506;4.472;2023-07-22T11:16:40;3.30;;;1.70;;
61460;SDS011;47325;50.506;4.472;2023-07-22T11:22:25;2.80;;;1.70;;
61460;SDS011;47325;50.506;4.472;2023-07-22T11:28:10;4.00;;;1.80;;
61460;SDS011;47325;50.506;4.472;2023-07-22T11:33:54;2.90;;;1.80;;
61460;SDS011;47325;50.506;4.472;2023-07-22T11:39:39;4.50;;;1.90;;
61460;SDS011;47325;50.506;4.472;2023-07-22T11:45:23;2.90;;;1.90;;
61460;SDS011;47325;50.506;4.472;2023-07-22T11:51:07;2.40;;;1.80;;
61460;SDS011;47325;50.506;4.472;2023-07-22T11:56:51;4.30;;;1.80;;
61460;SDS011;47325;50.506;4.472;2023-07-22T12:02:36;3.80;;;2.00;;
61460;SDS011;47325;50.506;4.472;2023-07-22T12:08:20;4.80;;;2.10;;
61460;SDS011;47325;50.506;4.472;2023-07-22T12:14:11;3.40;;;1.90;;
61460;SDS011;47325;50.506;4.472;2023-07-22T12:19:58;4.00;;;2.10;;
61460;SDS011;47325;50.506;4.472;2023-07-22T12:25:42;3.80;;;1.60;;
61460;SDS011;47325;50.506;4.472;2023-07-22T12:31:26;3.00;;;1.60;;
61460;SDS011;47325;50.506;4.472;2023-07-22T12:37:12;4.40;;;1.80;;
61460;SDS011;47325;50.506;4.472;2023-07-22T12:42:56;2.20;;;1.30;;
61460;SDS011;47325;50.506;4.472;2023-07-22T12:48:44;2.80;;;1.50;;
61460;SDS011;47325;50.506;4.472;2023-07-22T12:54:28;3.50;;;1.50;;
61460;SDS011;47325;50.506;4.472;2023-07-22T13:00:13;3.20;;;1.50;;
61460;SDS011;47325;50.506;4.472;2023-07-22T13:05:57;3.10;;;1.50;;
61460;SDS011;47325;50.506;4.472;2023-07-22T13:11:42;2.80;;;1.30;;
61460;SDS011;47325;50.506;4.472;2023-07-22T13:17:26;3.60;;;1.30;;
61460;SDS011;47325;50.506;4.472;2023-07-22T13:23:11;2.20;;;1.10;;
61460;SDS011;47325;50.506;4.472;2023-07-22T13:28:56;2.80;;;1.40;;
61460;SDS011;47325;50.506;4.472;2023-07-22T13:34:40;4.60;;;1.40;;
61460;SDS011;47325;50.506;4.472;2023-07-22T13:40:25;3.00;;;1.20;;
61460;SDS011;47325;50.506;4.472;2023-07-22T13:46:09;3.50;;;1.30;;
61460;SDS011;47325;50.506;4.472;2023-07-22T13:51:53;1.50;;;1.00;;
61460;SDS011;47325;50.506;4.472;2023-07-22T13:57:38;2.30;;;1.20;;
61460;SDS011;47325;50.506;4.472;2023-07-22T14:03:22;4.70;;;1.20;;
61460;SDS011;47325;50.506;4.472;2023-07-22T14:09:06;3.10;;;1.20;;
61460;SDS011;47325;50.506;4.472;2023-07-22T14:14:51;4.10;;;1.30;;
61460;SDS011;47325;50.506;4.472;2023-07-22T14:20:35;4.90;;;1.50;;
61460;SDS011;47325;50.506;4.472;2023-07-22T14:26:19;3.30;;;1.40;;
61460;SDS011;47325;50.506;4.472;2023-07-22T14:32:04;3.20;;;1.40;;
61460;SDS011;47325;50.506;4.472;2023-07-22T14:37:48;2.30;;;1.30;;
61460;SDS011;47325;50.506;4.472;2023-07-22T14:43:32;3.70;;;1.50;;
61460;SDS011;47325;50.506;4.472;2023-07-22T14:49:17;3.30;;;1.50;;
61460;SDS011;47325;50.506;4.472;2023-07-22T14:55:01;2.50;;;1.30;;
61460;SDS011;47325;50.506;4.472;2023-07-22T15:00:46;3.20;;;1.40;;
61460;SDS011;47325;50.506;4.472;2023-07-22T15:06:31;21.20;;;1.90;;
61460;SDS011;47325;50.506;4.472;2023-07-22T15:12:15;2.90;;;1.50;;
61460;SDS011;47325;50.506;4.472;2023-07-22T15:18:01;4.10;;;1.60;;
61460;SDS011;47325;50.506;4.472;2023-07-22T15:23:46;4.60;;;1.80;;
61460;SDS011;47325;50.506;4.472;2023-07-22T15:29:31;3.90;;;2.00;;
61460;SDS011;47325;50.506;4.472;2023-07-22T15:35:15;4.50;;;2.00;;
61460;SDS011;47325;50.506;4.472;2023-07-22T15:41:03;4.60;;;2.30;;
61460;SDS011;47325;50.506;4.472;2023-07-22T15:46:49;5.20;;;2.40;;
61460;SDS011;47325;50.506;4.472;2023-07-22T15:52:33;3.40;;;2.00;;
61460;SDS011;47325;50.506;4.472;2023-07-22T15:58:21;6.00;;;2.10;;
61460;SDS011;47325;50.506;4.472;2023-07-22T16:04:05;4.60;;;2.10;;
61460;SDS011;47325;50.506;4.472;2023-07-22T16:09:49;4.60;;;2.40;;
61460;SDS011;47325;50.506;4.472;2023-07-22T16:15:35;3.90;;;2.10;;
61460;SDS011;47325;50.506;4.472;2023-07-22T16:21:20;4.50;;;2.20;;
61460;SDS011;47325;50.506;4.472;2023-07-22T16:27:04;5.30;;;2.30;;
61460;SDS011;47325;50.506;4.472;2023-07-22T16:32:49;5.70;;;2.20;;
61460;SDS011;47325;50.506;4.472;2023-07-22T16:38:33;6.20;;;2.30;;
61460;SDS011;47325;50.506;4.472;2023-07-22T16:44:17;5.00;;;2.20;;
61460;SDS011;47325;50.506;4.472;2023-07-22T16:50:02;4.40;;;2.30;;
61460;SDS011;47325;50.506;4.472;2023-07-22T16:55:47;4.60;;;2.40;;
61460;SDS011;47325;50.506;4.472;2023-07-22T17:01:31;4.20;;;2.30;;
61460;SDS011;47325;50.506;4.472;2023-07-22T17:07:16;5.90;;;2.30;;
61460;SDS011;47325;50.506;4.472;2023-07-22T17:13:00;5.20;;;2.40;;
61460;SDS011;47325;50.506;4.472;2023-07-22T17:18:44;4.80;;;2.50;;
61460;SDS011;47325;50.506;4.472;2023-07-22T17:24:28;4.40;;;2.20;;
61460;SDS011;47325;50.506;4.472;2023-07-22T17:30:13;3.90;;;2.30;;
61460;SDS011;47325;50.506;4.472;2023-07-22T17:35:58;5.00;;;2.50;;
61460;SDS011;47325;50.506;4.472;2023-07-22T17:41:42;4.70;;;2.30;;
61460;SDS011;47325;50.506;4.472;2023-07-22T17:47:26;5.90;;;2.40;;
61460;SDS011;47325;50.506;4.472;2023-07-22T17:53:11;4.10;;;2.20;;
61460;SDS011;47325;50.506;4.472;2023-07-22T17:58:55;3.30;;;2.20;;
61460;SDS011;47325;50.506;4.472;2023-07-22T18:04:39;4.30;;;2.30;;
61460;SDS011;47325;50.506;4.472;2023-07-22T18:10:24;5.60;;;2.50;;
61460;SDS011;47325;50.506;4.472;2023-07-22T18:16:08;4.00;;;2.10;;
61460;SDS011;47325;50.506;4.472;2023-07-22T18:21:52;6.60;;;2.30;;
61460;SDS011;47325;50.506;4.472;2023-07-22T18:27:37;4.60;;;2.00;;
61460;SDS011;47325;50.506;4.472;2023-07-22T18:33:21;5.20;;;2.10;;
61460;SDS011;47325;50.506;4.472;2023-07-22T18:39:05;4.50;;;2.30;;
61460;SDS011;47325;50.506;4.472;2023-07-22T18:44:50;7.00;;;2.10;;
61460;SDS011;47325;50.506;4.472;2023-07-22T18:50:34;4.50;;;2.30;;
61460;SDS011;47325;50.506;4.472;2023-07-22T18:56:18;4.30;;;2.10;;
61460;SDS011;47325;50.506;4.472;2023-07-22T19:02:03;4.10;;;2.20;;
61460;SDS011;47325;50.506;4.472;2023-07-22T19:07:47;5.20;;;2.00;;
61460;SDS011;47325;50.506;4.472;2023-07-22T19:13:31;4.50;;;2.10;;
61460;SDS011;47325;50.506;4.472;2023-07-22T19:19:16;4.90;;;2.10;;
61460;SDS011;47325;50.506;4.472;2023-07-22T19:25:00;5.40;;;2.00;;
61460;SDS011;47325;50.506;4.472;2023-07-22T19:30:45;4.10;;;2.10;;
61460;SDS011;47325;50.506;4.472;2023-07-22T19:36:29;5.60;;;2.10;;
61460;SDS011;47325;50.506;4.472;2023-07-22T19:42:13;4.10;;;2.10;;
61460;SDS011;47325;50.506;4.472;2023-07-22T19:47:57;3.80;;;2.00;;
61460;SDS011;47325;50.506;4.472;2023-07-22T19:53:42;5.10;;;1.80;;
61460;SDS011;47325;50.506;4.472;2023-07-22T19:59:26;4.00;;;1.80;;
61460;SDS011;47325;50.506;4.472;2023-07-22T20:05:11;4.10;;;1.90;;
61460;SDS011;47325;50.506;4.472;2023-07-22T20:10:55;4.90;;;2.10;;
61460;SDS011;47325;50.506;4.472;2023-07-22T20:16:39;2.90;;;1.80;;
61460;SDS011;47325;50.506;4.472;2023-07-22T20:22:23;3.70;;;1.80;;
61460;SDS011;47325;50.506;4.472;2023-07-22T20:28:08;3.80;;;1.90;;
61460;SDS011;47325;50.506;4.472;2023-07-22T20:33:52;4.40;;;1.80;;
61460;SDS011;47325;50.506;4.472;2023-07-22T20:39:36;3.10;;;1.80;;
61460;SDS011;47325;50.506;4.472;2023-07-22T20:45:21;3.60;;;1.70;;
61460;SDS011;47325;50.506;4.472;2023-07-22T20:51:06;3.50;;;1.80;;
61460;SDS011;47325;50.506;4.472;2023-07-22T20:56:50;2.80;;;1.70;;
61460;SDS011;47325;50.506;4.472;2023-07-22T21:02:34;2.50;;;1.70;;
61460;SDS011;47325;50.506;4.472;2023-07-22T21:08:19;3.90;;;1.80;;
61460;SDS011;47325;50.506;4.472;2023-07-22T21:14:03;3.20;;;1.90;;
61460;SDS011;47325;50.506;4.472;2023-07-22T21:19:48;3.10;;;1.70;;
61460;SDS011;47325;50.506;4.472;2023-07-22T21:25:32;3.10;;;1.90;;
61460;SDS011;47325;50.506;4.472;2023-07-22T21:31:16;2.80;;;1.70;;
61460;SDS011;47325;50.506;4.472;2023-07-22T21:37:01;4.30;;;1.90;;
61460;SDS011;47325;50.506;4.472;2023-07-22T21:42:45;3.20;;;1.80;;
61460;SDS011;47325;50.506;4.472;2023-07-22T21:48:29;3.40;;;1.80;;
61460;SDS011;47325;50.506;4.472;2023-07-22T21:54:14;2.50;;;1.70;;
61460;SDS011;47325;50.506;4.472;2023-07-22T21:59:58;3.10;;;1.70;;
61460;SDS011;47325;50.506;4.472;2023-07-22T22:05:42;3.90;;;1.80;;
61460;SDS011;47325;50.506;4.472;2023-07-22T22:11:26;2.20;;;1.50;;
61460;SDS011;47325;50.506;4.472;2023-07-22T22:17:11;3.00;;;1.80;;
61460;SDS011;47325;50.506;4.472;2023-07-22T22:22:56;3.00;;;1.80;;
61460;SDS011;47325;50.506;4.472;2023-07-22T22:28:41;2.40;;;1.60;;
61460;SDS011;47325;50.506;4.472;2023-07-22T22:34:25;3.50;;;1.60;;
61460;SDS011;47325;50.506;4.472;2023-07-22T22:40:10;3.50;;;1.60;;
61460;SDS011;47325;50.506;4.472;2023-07-22T22:45:54;2.80;;;1.60;;
61460;SDS011;47325;50.506;4.472;2023-07-22T22:51:39;2.20;;;1.60;;
61460;SDS011;47325;50.506;4.472;2023-07-22T22:57:24;3.40;;;1.80;;
61460;SDS011;47325;50.506;4.472;2023-07-22T23:03:08;2.50;;;1.60;;
61460;SDS011;47325;50.506;4.472;2023-07-22T23:08:52;2.90;;;1.70;;
61460;SDS011;47325;50.506;4.472;2023-07-22T23:14:37;2.40;;;1.70;;
61460;SDS011;47325;50.506;4.472;2023-07-22T23:20:21;3.00;;;1.70;;
61460;SDS011;47325;50.506;4.472;2023-07-22T23:26:05;2.40;;;1.70;;
61460;SDS011;47325;50.506;4.472;2023-07-22T23:31:49;3.20;;;1.50;;
61460;SDS011;47325;50.506;4.472;2023-07-22T23:37:34;2.60;;;1.70;;
61460;SDS011;47325;50.506;4.472;2023-07-22T23:43:18;2.50;;;1.70;;
61460;SDS011;47325;50.506;4.472;2023-07-22T23:49:03;3.30;;;1.70;;
61460;SDS011;47325;50.506;4.472;2023-07-22T23:54:47;3.30;;;1.70;;
